KLOT/LOT METAR and TAF weather

Enter ICAO airport designator
Station Type Date Time Source
KLOT METAR 2019/06/16 20:55 UTC NOAA

KLOT 162055Z AUTO 04007KT 10SM OVC016 19/16 A2988 RMK AO2 P0001 60002 T01930163


Station Type Date Time Source
KLOT Decoded METAR 2019/06/16 20:55 UTC NOAA

Chicago/Romeoville, Lewis University Airport, IL, United States (KLOT) 41-36-30N 088-05-39W
Jun 16, 2019 - 04:55 PM EDT / 2019.06.16 2055 UTC
Wind: from the NE (040 degrees) at 8 MPH (7 KT):0
Visibility: 10 mile(s):0
Sky conditions: overcast
Precipitation last hour: 0.01 inches
Temperature: 66.7 F (19.3 C)
Dew Point: 61.3 F (16.3 C)
Relative Humidity: 82%
Pressure (altimeter): 29.88 in. Hg (1011 hPa)
ob: KLOT 162055Z AUTO 04007KT 10SM OVC016 19/16 A2988 RMK AO2 P0001 60002 T01930163
cycle: 21

Station Type Date Time Source
KLOT TAF UTC NOAA

Error!

Example: see airport list